createdAt,value
2024-04-12T00:01:33.302Z,95803.59
2024-04-12T00:04:03.026Z,95805.72
2024-04-12T00:06:29.919Z,95796.19
2024-04-12T00:08:57.171Z,95799.06
2024-04-12T00:11:24.177Z,95806.56
2024-04-12T00:13:51.619Z,95806.50
2024-04-12T00:16:18.863Z,95796.28
2024-04-12T00:18:46.194Z,95800.41
2024-04-12T00:21:13.195Z,95798.59
2024-04-12T00:23:40.099Z,95806.13
2024-04-12T00:26:08.267Z,95809.50
2024-04-12T00:28:35.186Z,95808.75
2024-04-12T00:31:02.949Z,95798.63
2024-04-12T00:33:31.259Z,95809.34
2024-04-12T00:36:02.573Z,95799.88
2024-04-12T00:38:29.447Z,95798.53
2024-04-12T00:40:56.720Z,95797.72
2024-04-12T00:43:23.984Z,95798.91
2024-04-12T00:45:50.871Z,95792.75
2024-04-12T00:48:19.539Z,95791.88
2024-04-12T00:50:46.471Z,95793.03
2024-04-12T00:53:15.351Z,95791.84
2024-04-12T00:55:42.559Z,95791.84
2024-04-12T00:58:12.329Z,95797.41
2024-04-12T01:00:39.495Z,95789.25
2024-04-12T01:03:07.154Z,95791.84
2024-04-12T01:05:38.052Z,95794.44
2024-04-12T01:08:05.230Z,95794.19
2024-04-12T01:10:32.559Z,95793.59
2024-04-12T01:13:00.128Z,95801.28
2024-04-12T01:15:28.268Z,95799.31
2024-04-12T01:17:55.244Z,95796.16
2024-04-12T01:20:22.228Z,95797.00
2024-04-12T01:22:50.273Z,95795.16
2024-04-12T01:25:17.176Z,95797.50
2024-04-12T01:27:44.527Z,95797.16
2024-04-12T01:30:12.817Z,95794.94
2024-04-12T01:32:39.813Z,95797.94
2024-04-12T01:35:06.954Z,95800.16
2024-04-12T01:37:33.841Z,95801.03
2024-04-12T01:40:01.032Z,95804.31
2024-04-12T01:42:27.927Z,95792.28
2024-04-12T01:44:57.858Z,95804.06
2024-04-12T01:47:26.074Z,95793.84
2024-04-12T01:49:56.122Z,95805.41
2024-04-12T01:52:23.055Z,95806.69
2024-04-12T01:54:49.929Z,95802.13
2024-04-12T01:57:17.161Z,95802.94
2024-04-12T01:59:44.113Z,95804.59
2024-04-12T02:02:10.980Z,95807.41
2024-04-12T02:04:38.317Z,95811.13
2024-04-12T02:07:05.368Z,95807.69
2024-04-12T02:09:35.285Z,95804.19
2024-04-12T02:12:02.705Z,95812.38
2024-04-12T02:14:29.583Z,95810.47
2024-04-12T02:16:57.989Z,95813.63
2024-04-12T02:19:27.781Z,95808.34
2024-04-12T02:21:55.627Z,95811.19
2024-04-12T02:24:23.000Z,95812.13
2024-04-12T02:26:50.443Z,95812.94
2024-04-12T02:29:17.366Z,95811.69
2024-04-12T02:31:44.296Z,95820.69
2024-04-12T02:34:11.160Z,95812.03
2024-04-12T02:36:38.390Z,95819.09
2024-04-12T02:39:05.434Z,95822.00
2024-04-12T02:41:32.445Z,95814.00
2024-04-12T02:43:59.500Z,95817.59
2024-04-12T02:46:26.380Z,95823.22
2024-04-12T02:48:55.179Z,95818.63
2024-04-12T02:51:22.124Z,95833.09
2024-04-12T02:53:49.234Z,95821.72
2024-04-12T02:56:18.260Z,95816.78
2024-04-12T02:58:46.376Z,95816.28
2024-04-12T03:01:20.548Z,95817.41
2024-04-12T03:03:52.076Z,95820.56
2024-04-12T03:06:23.832Z,95825.44
2024-04-12T03:09:02.859Z,95829.75
2024-04-12T03:11:31.073Z,95817.97
2024-04-12T03:13:59.316Z,95826.03
2024-04-12T03:16:26.240Z,95826.50
2024-04-12T03:18:53.839Z,95825.56
2024-04-12T03:21:21.250Z,95831.38
2024-04-12T03:23:49.107Z,95831.38
2024-04-12T03:26:18.025Z,95831.75
2024-04-12T03:28:45.442Z,95836.22
2024-04-12T03:31:15.875Z,95836.84
2024-04-12T03:33:43.213Z,95832.66
2024-04-12T03:36:17.128Z,95836.59
2024-04-12T03:38:47.125Z,95833.94
2024-04-12T03:41:14.036Z,95831.50
2024-04-12T03:43:40.948Z,95832.59
2024-04-12T03:46:08.046Z,95835.38
2024-04-12T03:48:35.090Z,95824.81
2024-04-12T03:51:02.065Z,95828.91
2024-04-12T03:53:28.987Z,95826.22
2024-04-12T03:55:57.212Z,95833.69
2024-04-12T03:58:24.423Z,95838.66
2024-04-12T04:00:51.392Z,95835.25
2024-04-12T04:03:18.683Z,95835.38
2024-04-12T04:05:45.717Z,95833.78
2024-04-12T04:08:12.572Z,95832.88
2024-04-12T04:10:39.899Z,95828.22
2024-04-12T04:13:26.717Z,95832.00
2024-04-12T04:16:01.473Z,95839.25
2024-04-12T04:18:47.596Z,95837.63
2024-04-12T04:21:14.563Z,95839.03
2024-04-12T04:23:42.080Z,95843.38
2024-04-12T04:26:09.765Z,95843.75
2024-04-12T04:28:37.147Z,95840.22
2024-04-12T04:31:05.090Z,95840.53
2024-04-12T04:33:32.447Z,95843.63
2024-04-12T04:35:59.825Z,95845.47
2024-04-12T04:38:26.705Z,95844.03
2024-04-12T04:41:00.481Z,95846.88
2024-04-12T04:43:27.421Z,95844.66
2024-04-12T04:45:54.370Z,95847.50
2024-04-12T04:48:21.297Z,95841.53
2024-04-12T04:50:48.237Z,95841.91
2024-04-12T04:53:15.890Z,95845.81
2024-04-12T04:55:44.901Z,95841.84
2024-04-12T04:58:11.868Z,95843.06
2024-04-12T05:00:38.855Z,95845.13
2024-04-12T05:03:05.767Z,95846.56
2024-04-12T05:05:33.212Z,95856.00
2024-04-12T05:08:01.273Z,95854.06
2024-04-12T05:10:31.327Z,95852.88
2024-04-12T05:12:58.242Z,95853.56
2024-04-12T05:15:28.226Z,95863.75
2024-04-12T05:17:55.546Z,95856.25
2024-04-12T05:20:22.510Z,95854.03
2024-04-12T05:22:49.391Z,95856.22
2024-04-12T05:25:19.378Z,95856.59
2024-04-12T05:27:46.225Z,95858.19
2024-04-12T05:30:14.469Z,95856.16
2024-04-12T05:32:41.883Z,95853.59
2024-04-12T05:35:09.328Z,95856.03
2024-04-12T05:37:36.172Z,95857.47
2024-04-12T05:40:06.642Z,95857.03
2024-04-12T05:42:34.211Z,95863.72
2024-04-12T05:45:01.506Z,95865.81
2024-04-12T05:47:28.546Z,95858.72
2024-04-12T05:49:57.236Z,95856.16
2024-04-12T05:52:24.782Z,95861.03
2024-04-12T05:54:51.642Z,95853.59
2024-04-12T05:57:18.539Z,95863.19
2024-04-12T05:59:49.107Z,95864.41
2024-04-12T06:02:16.462Z,95856.88
2024-04-12T06:04:46.058Z,95865.38
2024-04-12T06:07:13.402Z,95855.31
2024-04-12T06:09:40.603Z,95847.47
2024-04-12T06:12:07.882Z,95852.09
2024-04-12T06:14:36.901Z,95843.06
2024-04-12T06:17:03.879Z,95849.78
2024-04-12T06:19:31.834Z,95851.13
2024-04-12T06:21:59.700Z,95857.22
2024-04-12T06:24:26.584Z,95854.28
2024-04-12T06:26:57.108Z,95857.03
2024-04-12T06:29:32.554Z,95853.31
2024-04-12T06:32:03.749Z,95861.00
2024-04-12T06:34:30.624Z,95856.13
2024-04-12T06:36:57.675Z,95856.59
2024-04-12T06:39:24.795Z,95864.72
2024-04-12T06:41:51.738Z,95866.03
2024-04-12T06:44:19.832Z,95866.03
2024-04-12T06:46:53.295Z,95864.91
2024-04-12T06:49:23.145Z,95863.50
2024-04-12T06:51:52.525Z,95864.06
2024-04-12T06:54:19.451Z,95866.06
2024-04-12T06:56:47.669Z,95870.31
2024-04-12T06:59:14.977Z,95859.66
2024-04-12T07:01:41.834Z,95856.91
2024-04-12T07:04:09.207Z,95863.09
2024-04-12T07:06:38.724Z,95856.47
2024-04-12T07:09:08.394Z,95858.81
2024-04-12T07:11:38.333Z,95863.34
2024-04-12T07:14:05.623Z,95864.78
2024-04-12T07:16:32.933Z,95861.38
2024-04-12T07:19:00.225Z,95868.78
2024-04-12T07:21:27.094Z,95861.31
2024-04-12T07:23:56.919Z,95856.69
2024-04-12T07:26:24.250Z,95858.19
2024-04-12T07:29:02.877Z,95861.06
2024-04-12T07:31:31.251Z,95853.06
2024-04-12T07:33:59.464Z,95852.09
2024-04-12T07:36:27.303Z,95862.94
2024-04-12T07:38:54.163Z,95850.25
2024-04-12T07:41:21.453Z,95856.66
2024-04-12T07:43:48.764Z,95856.38
2024-04-12T07:46:16.399Z,95863.88
2024-04-12T07:48:43.283Z,95853.53
2024-04-12T07:51:10.249Z,95860.59
2024-04-12T07:53:38.708Z,95862.44
2024-04-12T07:56:05.890Z,95859.13
2024-04-12T07:58:36.165Z,95858.56
2024-04-12T08:01:12.810Z,95861.84
2024-04-12T08:03:40.276Z,95865.09
2024-04-12T08:06:08.540Z,95863.41
2024-04-12T08:08:35.896Z,95857.44
2024-04-12T08:11:03.356Z,95862.81
2024-04-12T08:13:30.681Z,95862.47
2024-04-12T08:15:57.582Z,95852.28
2024-04-12T08:18:27.811Z,95858.22
2024-04-12T08:20:54.787Z,95861.19
2024-04-12T08:23:21.675Z,95861.38
2024-04-12T08:25:48.536Z,95852.25
2024-04-12T08:28:17.698Z,95844.72
2024-04-12T08:30:44.658Z,95852.66
2024-04-12T08:33:11.681Z,95851.56
2024-04-12T08:35:41.070Z,95854.75
2024-04-12T08:38:08.054Z,95853.91
2024-04-12T08:40:35.730Z,95851.38
2024-04-12T08:43:04.123Z,95850.31
2024-04-12T08:45:31.025Z,95852.06
2024-04-12T08:47:58.449Z,95855.81
2024-04-12T08:50:26.325Z,95847.94
2024-04-12T08:52:53.528Z,95851.75
2024-04-12T08:55:22.435Z,95852.16
2024-04-12T08:57:51.465Z,95850.22
2024-04-12T09:00:18.975Z,95853.06
2024-04-12T09:02:50.557Z,95842.72
2024-04-12T09:05:22.093Z,95838.13
2024-04-12T09:07:55.238Z,95855.81
2024-04-12T09:10:27.017Z,95856.91
2024-04-12T09:12:55.028Z,95847.91
2024-04-12T09:15:26.423Z,95838.22
2024-04-12T09:17:53.852Z,95844.88
2024-04-12T09:20:21.026Z,95854.81
2024-04-12T09:22:50.695Z,95853.88
2024-04-12T09:25:20.375Z,95853.41
2024-04-12T09:27:50.241Z,95852.56
2024-04-12T09:30:17.568Z,95847.47
2024-04-12T09:32:44.735Z,95848.28
2024-04-12T09:35:13.348Z,95837.78
2024-04-12T09:37:43.453Z,95838.59
2024-04-12T09:40:10.430Z,95843.03
2024-04-12T09:42:38.146Z,95843.88
2024-04-12T09:45:08.413Z,95846.34
2024-04-12T09:49:14.138Z,95842.03
2024-04-12T09:55:18.433Z,95845.88
2024-04-12T09:57:39.655Z,95837.38
2024-04-12T10:00:10.276Z,95833.66
2024-04-12T10:02:41.699Z,95830.59
2024-04-12T10:05:09.576Z,95834.97
2024-04-12T10:07:39.473Z,95837.03
2024-04-12T10:10:08.036Z,95829.88
2024-04-12T10:12:37.982Z,95831.50
2024-04-12T10:15:06.157Z,95835.00
2024-04-12T10:17:33.686Z,95831.44
2024-04-12T10:20:03.982Z,95820.63
2024-04-12T10:22:30.902Z,95825.88
2024-04-12T10:25:02.959Z,95818.63
2024-04-12T10:27:29.911Z,95820.75
2024-04-12T10:29:57.027Z,95818.34
2024-04-12T10:32:23.999Z,95812.44
2024-04-12T10:34:52.434Z,95810.81
2024-04-12T10:37:20.724Z,95800.91
2024-04-12T10:39:48.677Z,95800.41
2024-04-12T10:42:16.328Z,95803.69
2024-04-12T10:44:44.910Z,95794.56
2024-04-12T10:47:12.441Z,95798.69
2024-04-12T10:49:39.998Z,95791.44
2024-04-12T10:52:10.305Z,95788.19
2024-04-12T10:54:37.341Z,95787.31
2024-04-12T10:57:07.792Z,95780.56
2024-04-12T10:59:38.362Z,95787.19
2024-04-12T11:02:06.078Z,95778.03
2024-04-12T11:04:33.125Z,95779.44
2024-04-12T11:07:01.755Z,95767.41
2024-04-12T11:09:30.087Z,95768.78
2024-04-12T11:11:57.516Z,95768.75
2024-04-12T11:14:24.445Z,95770.97
2024-04-12T11:16:51.879Z,95776.56
2024-04-12T11:19:23.888Z,95768.97
2024-04-12T11:21:51.791Z,95759.94
2024-04-12T11:24:19.384Z,95753.19
2024-04-12T11:26:46.849Z,95754.09
2024-04-12T11:29:18.158Z,95762.41
2024-04-12T11:31:45.031Z,95748.13
2024-04-12T11:34:13.512Z,95750.72
2024-04-12T11:36:42.094Z,95744.97
2024-04-12T11:39:10.966Z,95748.38
2024-04-12T11:41:38.269Z,95749.13
2024-04-12T11:44:05.427Z,95753.44
2024-04-12T11:46:35.217Z,95748.03
2024-04-12T11:49:04.445Z,95743.50
2024-04-12T11:51:39.306Z,95751.16
2024-04-12T11:54:06.726Z,95747.81
2024-04-12T11:56:34.089Z,95748.13
2024-04-12T11:59:01.065Z,95745.47
2024-04-12T12:01:34.313Z,95737.44
2024-04-12T12:04:01.274Z,95736.09
2024-04-12T12:06:28.193Z,95737.47
2024-04-12T12:08:56.404Z,95738.75
2024-04-12T12:11:26.157Z,95748.03
2024-04-12T12:13:55.987Z,95739.00
2024-04-12T12:16:23.335Z,95726.84
2024-04-12T12:18:50.344Z,95733.28
2024-04-12T12:21:17.914Z,95729.88
2024-04-12T12:23:47.655Z,95727.84
2024-04-12T12:26:14.599Z,95735.63
2024-04-12T12:28:46.524Z,95732.78
2024-04-12T12:31:13.695Z,95735.84
2024-04-12T12:33:41.925Z,95736.81
2024-04-12T12:36:09.607Z,95728.13
2024-04-12T12:38:39.535Z,95721.63
2024-04-12T12:41:09.186Z,95727.06
2024-04-12T12:43:37.434Z,95716.94
2024-04-12T12:46:05.509Z,95719.03
2024-04-12T12:48:33.655Z,95715.38
2024-04-12T12:51:01.737Z,95710.91
2024-04-12T12:53:31.744Z,95708.91
2024-04-12T12:55:59.018Z,95695.88
2024-04-12T12:58:31.354Z,95685.97
2024-04-12T13:00:58.866Z,95686.59
2024-04-12T13:03:25.945Z,95689.59
2024-04-12T13:05:53.983Z,95689.44
2024-04-12T13:08:20.963Z,95680.78
2024-04-12T13:10:48.810Z,95673.41
2024-04-12T13:13:16.835Z,95679.88
2024-04-12T13:15:46.673Z,95680.44
2024-04-12T13:18:13.955Z,95670.59
2024-04-12T13:20:41.308Z,95674.53
2024-04-12T13:23:08.243Z,95664.31
2024-04-12T13:25:35.172Z,95660.63
2024-04-12T13:28:05.598Z,95665.09
2024-04-12T13:30:42.881Z,95657.78
2024-04-12T13:33:10.157Z,95652.69
2024-04-12T13:38:34.722Z,95652.41
2024-04-12T13:41:08.816Z,95649.03
2024-04-12T13:43:36.131Z,95657.63
2024-04-12T13:46:04.379Z,95645.59
2024-04-12T13:48:31.405Z,95644.59
2024-04-12T13:50:59.077Z,95646.53
2024-04-12T13:53:28.822Z,95638.47
2024-04-12T13:55:56.105Z,95642.50
2024-04-12T13:58:23.435Z,95636.72
2024-04-12T14:00:51.039Z,95638.31
2024-04-12T14:03:19.871Z,95638.75
2024-04-12T14:05:48.127Z,95635.63
2024-04-12T14:08:15.458Z,95629.63
2024-04-12T14:10:45.089Z,95633.34
2024-04-12T14:13:14.899Z,95625.28
2024-04-12T14:15:42.203Z,95618.56
2024-04-12T14:18:09.623Z,95616.59
2024-04-12T14:20:36.865Z,95608.56
2024-04-12T14:23:04.406Z,95605.41
2024-04-12T14:25:31.753Z,95600.97
2024-04-12T14:28:01.880Z,95601.56
2024-04-12T14:30:30.163Z,95598.34
2024-04-12T14:33:02.349Z,95594.06
2024-04-12T14:35:29.733Z,95596.31
2024-04-12T14:37:56.867Z,95589.59
2024-04-12T14:40:24.208Z,95599.06
2024-04-12T14:42:56.648Z,95596.00
2024-04-12T14:45:23.942Z,95588.56
2024-04-12T14:47:59.194Z,95591.66
2024-04-12T14:50:35.124Z,95587.59
2024-04-12T14:53:04.658Z,95589.66
2024-04-12T14:55:32.150Z,95577.31
2024-04-12T14:57:59.642Z,95587.44
2024-04-12T15:00:26.807Z,95582.81
2024-04-12T15:02:54.231Z,95580.16
2024-04-12T15:05:21.168Z,95587.00
2024-04-12T15:07:48.441Z,95579.28
2024-04-12T15:10:20.266Z,95577.91
2024-04-12T15:12:47.220Z,95577.22
2024-04-12T15:15:14.493Z,95573.97
2024-04-12T15:17:41.457Z,95582.03
2024-04-12T15:20:09.156Z,95577.06
2024-04-12T15:22:36.041Z,95571.63
2024-04-12T15:25:08.116Z,95568.84
2024-04-12T15:27:35.036Z,95568.09
2024-04-12T15:30:02.209Z,95555.25
2024-04-12T15:32:30.927Z,95547.97
2024-04-12T15:34:58.213Z,95561.47
2024-04-12T15:37:25.563Z,95558.56
2024-04-12T15:39:55.340Z,95553.63
2024-04-12T15:42:22.695Z,95547.84
2024-04-12T15:44:50.165Z,95555.38
2024-04-12T15:47:17.283Z,95547.47
2024-04-12T15:49:47.594Z,95539.72
2024-04-12T15:52:16.044Z,95544.31
2024-04-12T15:54:48.891Z,95553.00
2024-04-12T15:57:16.287Z,95543.75
2024-04-12T15:59:43.660Z,95544.53
2024-04-12T16:02:10.998Z,95549.34
2024-04-12T16:04:38.303Z,95551.22
2024-04-12T16:07:10.308Z,95549.50
2024-04-12T16:09:41.592Z,95549.81
2024-04-12T16:12:10.055Z,95540.50
2024-04-12T16:14:37.400Z,95540.06
2024-04-12T16:17:04.732Z,95546.69
2024-04-12T16:19:36.968Z,95538.97
2024-04-12T16:22:04.433Z,95537.59
2024-04-12T16:24:36.380Z,95537.50
2024-04-12T16:27:05.499Z,95543.81
2024-04-12T16:29:38.645Z,95550.81
2024-04-12T16:32:05.749Z,95541.19
2024-04-12T16:34:33.331Z,95544.09
2024-04-12T16:37:03.947Z,95543.88
2024-04-12T16:39:31.299Z,95531.06
2024-04-12T16:41:58.591Z,95530.56
2024-04-12T16:44:25.530Z,95529.88
2024-04-12T16:46:55.466Z,95521.69
2024-04-12T16:49:22.762Z,95518.47
2024-04-12T16:51:50.181Z,95523.72
2024-04-12T16:54:26.033Z,95520.78
2024-04-12T16:56:55.320Z,95518.78
2024-04-12T16:59:23.288Z,95514.63
2024-04-12T17:01:50.280Z,95507.13
2024-04-12T17:04:18.105Z,95515.34
2024-04-12T17:06:47.946Z,95509.28
2024-04-12T17:09:15.754Z,95506.03
2024-04-12T17:11:42.954Z,95512.94
2024-04-12T17:14:10.328Z,95516.59
2024-04-12T17:16:37.409Z,95513.19
2024-04-12T17:19:06.350Z,95514.38
2024-04-12T17:21:36.572Z,95518.13
2024-04-12T17:24:03.673Z,95512.69
2024-04-12T17:26:35.550Z,95522.81
2024-04-12T17:29:07.788Z,95521.38
2024-04-12T17:31:35.287Z,95533.72
2024-04-12T17:34:09.204Z,95519.09
2024-04-12T17:36:36.755Z,95520.72
2024-04-12T17:39:07.277Z,95524.47
2024-04-12T17:41:34.281Z,95519.91
2024-04-12T17:44:01.631Z,95516.94
2024-04-12T17:46:32.910Z,95520.25
2024-04-12T17:49:00.508Z,95521.41
2024-04-12T17:51:28.273Z,95527.50
2024-04-12T17:53:55.657Z,95520.75
2024-04-12T17:56:22.842Z,95526.13
2024-04-12T17:58:53.525Z,95523.72
2024-04-12T18:01:24.260Z,95527.72
2024-04-12T18:03:55.338Z,95525.47
2024-04-12T18:06:26.702Z,95531.94
2024-04-12T18:09:12.938Z,95539.59
2024-04-12T18:14:10.865Z,95534.22
2024-04-12T18:18:32.261Z,95544.16
2024-04-12T18:21:04.305Z,95544.78
2024-04-12T18:23:33.978Z,95535.91
2024-04-12T18:26:06.264Z,95541.13
2024-04-12T18:28:33.567Z,95539.94
2024-04-12T18:31:03.355Z,95546.41
2024-04-12T18:33:30.712Z,95546.72
2024-04-12T18:35:57.976Z,95540.84
2024-04-12T18:38:24.920Z,95549.09
2024-04-12T18:40:55.223Z,95555.00
2024-04-12T18:43:23.268Z,95554.16
2024-04-12T18:45:50.550Z,95558.53
2024-04-12T18:48:17.899Z,95559.53
2024-04-12T18:50:45.817Z,95562.63
2024-04-12T18:53:18.324Z,95561.19
2024-04-12T18:55:51.277Z,95577.88
2024-04-12T18:58:18.619Z,95567.56
2024-04-12T19:00:49.236Z,95569.13
2024-04-12T19:03:16.707Z,95578.31
2024-04-12T19:05:44.451Z,95572.31
2024-04-12T19:08:12.467Z,95574.47
2024-04-12T19:10:39.357Z,95569.31
2024-04-12T19:13:08.024Z,95570.09
2024-04-12T19:15:38.932Z,95566.66
2024-04-12T19:18:08.871Z,95565.75
2024-04-12T19:20:45.458Z,95574.25
2024-04-12T19:23:12.515Z,95578.56
2024-04-12T19:25:39.774Z,95578.44
2024-04-12T19:28:06.816Z,95575.41
2024-04-12T19:30:37.480Z,95572.53
2024-04-12T19:33:04.984Z,95581.78
2024-04-12T19:35:32.448Z,95575.81
2024-04-12T19:37:59.735Z,95572.28
2024-04-12T19:40:27.013Z,95573.88
2024-04-12T19:42:54.141Z,95588.38
2024-04-12T19:45:24.089Z,95580.81
2024-04-12T19:47:54.950Z,95578.25
2024-04-12T19:50:22.013Z,95588.28
2024-04-12T19:52:54.689Z,95591.72
2024-04-12T19:55:24.478Z,95594.22
2024-04-12T19:57:52.662Z,95590.31
2024-04-12T20:00:21.046Z,95597.66
2024-04-12T20:02:48.345Z,95598.53
2024-04-12T20:05:16.233Z,95598.44
2024-04-12T20:07:43.197Z,95598.72
2024-04-12T20:10:15.203Z,95607.34
2024-04-12T20:12:42.788Z,95604.91
2024-04-12T20:15:09.704Z,95605.78
2024-04-12T20:17:41.173Z,95603.47
2024-04-12T20:20:11.507Z,95610.66
2024-04-12T20:22:38.787Z,95612.59
2024-04-12T20:25:06.481Z,95606.34
2024-04-12T20:27:33.665Z,95612.47
2024-04-12T20:30:01.058Z,95611.97
2024-04-12T20:32:30.927Z,95606.03
2024-04-12T20:34:57.867Z,95610.91
2024-04-12T20:37:25.502Z,95616.50
2024-04-12T20:39:53.326Z,95632.03
2024-04-12T20:42:20.580Z,95616.66
2024-04-12T20:44:47.947Z,95624.56
2024-04-12T20:47:17.976Z,95623.72
2024-04-12T20:49:45.955Z,95619.06
2024-04-12T20:52:13.258Z,95622.75
2024-04-12T20:54:40.107Z,95625.81
2024-04-12T20:57:10.246Z,95637.81
2024-04-12T20:59:39.448Z,95631.94
2024-04-12T21:02:06.337Z,95630.38
2024-04-12T21:04:40.191Z,95634.19
2024-04-12T21:07:09.726Z,95635.16
2024-04-12T21:09:38.458Z,95639.44
2024-04-12T21:12:06.060Z,95636.56
2024-04-12T21:14:33.030Z,95636.38
2024-04-12T21:16:59.884Z,95633.28
2024-04-12T21:19:26.885Z,95641.91
2024-04-12T21:21:54.117Z,95637.56
2024-04-12T21:24:21.058Z,95638.56
2024-04-12T21:26:47.996Z,95637.81
2024-04-12T21:29:14.889Z,95625.75
2024-04-12T21:31:42.007Z,95625.78
2024-04-12T21:34:09.416Z,95623.19
2024-04-12T21:36:36.833Z,95631.38
2024-04-12T21:39:03.776Z,95634.63
2024-04-12T21:41:30.964Z,95622.22
2024-04-12T21:43:58.107Z,95627.28
2024-04-12T21:46:26.264Z,95629.59
2024-04-12T21:48:54.358Z,95632.00
2024-04-12T21:51:22.351Z,95630.66
2024-04-12T21:53:52.395Z,95629.63
2024-04-12T21:56:20.227Z,95634.00
2024-04-12T21:58:48.643Z,95633.88
2024-04-12T22:01:21.101Z,95639.31
2024-04-12T22:03:49.153Z,95643.84
2024-04-12T22:06:17.009Z,95639.09
2024-04-12T22:08:44.913Z,95636.88
2024-04-12T22:11:12.189Z,95629.84
2024-04-12T22:13:39.570Z,95627.22
2024-04-12T22:16:07.879Z,95631.25
2024-04-12T22:18:35.586Z,95642.34
2024-04-12T22:21:03.475Z,95633.66
2024-04-12T22:23:31.582Z,95636.00
2024-04-12T22:25:59.039Z,95640.03
2024-04-12T22:28:31.944Z,95633.66
2024-04-12T22:30:59.331Z,95631.31
2024-04-12T22:33:26.285Z,95628.16
2024-04-12T22:35:53.550Z,95630.78
2024-04-12T22:38:20.408Z,95636.06
2024-04-12T22:40:47.761Z,95625.25
2024-04-12T22:43:14.653Z,95629.00
2024-04-12T22:45:41.983Z,95630.78
2024-04-12T22:48:11.724Z,95631.91
2024-04-12T22:50:38.669Z,95625.09
2024-04-12T22:53:06.212Z,95626.81
2024-04-12T22:55:33.135Z,95629.19
2024-04-12T22:58:00.335Z,95619.59
2024-04-12T23:00:28.118Z,95622.91
2024-04-12T23:02:56.180Z,95623.34
2024-04-12T23:05:23.457Z,95628.19
2024-04-12T23:07:50.773Z,95626.44
2024-04-12T23:10:18.201Z,95623.56
2024-04-12T23:12:45.101Z,95627.75
2024-04-12T23:15:12.365Z,95629.63
2024-04-12T23:17:42.551Z,95630.47
2024-04-12T23:20:09.569Z,95623.41
2024-04-12T23:22:36.898Z,95621.28
2024-04-12T23:25:03.932Z,95612.53
2024-04-12T23:27:30.890Z,95615.03
2024-04-12T23:30:00.867Z,95615.47
2024-04-12T23:32:27.840Z,95616.94
2024-04-12T23:34:55.211Z,95614.38
2024-04-12T23:37:22.674Z,95613.03
2024-04-12T23:39:50.887Z,95606.44
2024-04-12T23:42:17.771Z,95608.13
2024-04-12T23:44:47.758Z,95601.41
2024-04-12T23:47:15.437Z,95598.41
2024-04-12T23:49:42.589Z,95600.47
2024-04-12T23:52:09.447Z,95591.31
2024-04-12T23:54:36.878Z,95600.09
2024-04-12T23:57:05.644Z,95591.59
2024-04-12T23:59:35.546Z,95588.06
